createdAt,value
2022-08-03T00:01:29.882Z,2.53
2022-08-03T00:03:57.219Z,2.83
2022-08-03T00:06:24.583Z,3.28
2022-08-03T00:08:51.926Z,3.65
2022-08-03T00:11:19.269Z,3.20
2022-08-03T00:13:46.698Z,3.45
2022-08-03T00:16:14.072Z,3.38
2022-08-03T00:18:41.468Z,3.28
2022-08-03T00:21:08.828Z,3.25
2022-08-03T00:23:50.814Z,2.75
2022-08-03T00:26:23.144Z,2.83
2022-08-03T00:28:50.610Z,2.67
2022-08-03T00:31:22.270Z,2.83
2022-08-03T00:34:06.032Z,3.20
2022-08-03T00:36:34.179Z,3.03
2022-08-03T00:39:01.567Z,2.58
2022-08-03T00:41:29.112Z,2.30
2022-08-03T00:43:56.431Z,2.30
2022-08-03T00:46:23.752Z,2.45
2022-08-03T00:48:51.117Z,2.28
2022-08-03T00:51:18.973Z,2.35
2022-08-03T00:53:46.364Z,2.30
2022-08-03T00:56:17.281Z,2.00
2022-08-03T00:58:45.379Z,2.22
2022-08-03T01:01:12.971Z,2.65
2022-08-03T01:03:40.601Z,2.33
2022-08-03T01:06:20.767Z,2.40
2022-08-03T01:08:50.857Z,2.40
2022-08-03T01:11:28.851Z,2.50
2022-08-03T01:14:26.351Z,2.60
2022-08-03T01:17:02.214Z,2.22
2022-08-03T01:19:52.559Z,2.88
2022-08-03T01:22:57.171Z,2.58
2022-08-03T01:26:03.933Z,2.60
2022-08-03T01:29:07.668Z,2.50
2022-08-03T01:32:59.811Z,2.90
2022-08-03T01:34:48.673Z,3.30
2022-08-03T01:37:18.579Z,2.35
2022-08-03T01:39:45.884Z,2.20
2022-08-03T01:42:13.217Z,2.58
2022-08-03T01:44:43.780Z,2.90
2022-08-03T01:47:11.144Z,2.88
2022-08-03T01:49:39.729Z,2.65
2022-08-03T01:52:07.234Z,2.67
2022-08-03T01:54:36.447Z,2.80
2022-08-03T01:57:04.360Z,2.83
2022-08-03T01:59:32.986Z,2.80
2022-08-03T02:02:15.311Z,2.40
2022-08-03T02:04:47.740Z,2.50
2022-08-03T02:07:15.695Z,2.33
2022-08-03T02:09:45.115Z,2.60
2022-08-03T02:12:12.661Z,2.50
2022-08-03T02:14:40.125Z,2.50
2022-08-03T02:17:07.850Z,2.70
2022-08-03T02:19:35.914Z,2.28
2022-08-03T02:22:04.500Z,2.30
2022-08-03T02:24:31.939Z,2.20
2022-08-03T02:26:59.315Z,2.30
2022-08-03T02:29:39.247Z,2.03
2022-08-03T02:32:10.805Z,2.17
2022-08-03T02:34:38.355Z,2.05
2022-08-03T02:37:06.039Z,2.17
2022-08-03T02:39:33.519Z,2.30
2022-08-03T02:42:03.536Z,2.13
2022-08-03T02:44:32.777Z,1.98
2022-08-03T02:47:05.278Z,2.20
2022-08-03T02:49:42.708Z,2.00
2022-08-03T02:52:20.898Z,1.80
2022-08-03T02:54:48.820Z,1.83
2022-08-03T02:57:16.190Z,2.08
2022-08-03T02:59:43.515Z,1.70
2022-08-03T03:02:11.036Z,2.00
2022-08-03T03:04:38.403Z,2.53
2022-08-03T03:07:15.464Z,2.28
2022-08-03T03:09:43.225Z,2.38
2022-08-03T03:12:11.399Z,2.30
2022-08-03T03:14:38.752Z,2.40
2022-08-03T03:17:09.958Z,2.65
2022-08-03T03:19:37.355Z,2.42
2022-08-03T03:22:04.927Z,3.17
2022-08-03T03:24:32.238Z,2.70
2022-08-03T03:26:59.574Z,2.70
2022-08-03T03:29:27.046Z,2.80
2022-08-03T03:31:54.451Z,2.85
2022-08-03T03:34:21.753Z,3.00
2022-08-03T03:36:50.657Z,2.78
2022-08-03T03:39:17.990Z,2.85
2022-08-03T03:41:45.371Z,2.83
2022-08-03T03:44:12.754Z,2.70
2022-08-03T03:46:40.080Z,2.28
2022-08-03T03:49:07.627Z,2.88
2022-08-03T03:51:35.080Z,2.70
2022-08-03T03:54:04.477Z,2.33
2022-08-03T03:56:33.883Z,2.50
2022-08-03T03:59:01.307Z,2.17
2022-08-03T04:01:28.928Z,2.00
2022-08-03T04:03:56.258Z,2.45
2022-08-03T04:06:41.940Z,2.20
2022-08-03T04:09:27.525Z,1.85
2022-08-03T04:11:55.382Z,1.92
2022-08-03T04:14:29.857Z,1.83
2022-08-03T04:19:27.737Z,1.90
2022-08-03T04:21:58.014Z,2.40
2022-08-03T04:24:27.156Z,1.98
2022-08-03T04:26:54.525Z,2.70
2022-08-03T04:29:21.910Z,2.33
2022-08-03T04:31:49.401Z,2.35
2022-08-03T04:34:16.898Z,2.20
2022-08-03T04:36:49.822Z,2.28
2022-08-03T04:39:28.289Z,2.50
2022-08-03T04:42:06.994Z,2.70
2022-08-03T04:44:40.504Z,2.85
2022-08-03T04:47:08.079Z,2.67
2022-08-03T04:49:37.592Z,2.75
2022-08-03T04:52:05.747Z,2.50
2022-08-03T04:54:42.660Z,2.22
2022-08-03T04:57:22.145Z,2.13
2022-08-03T05:02:31.323Z,2.53
2022-08-03T05:04:58.807Z,2.35
2022-08-03T05:07:26.149Z,2.40
2022-08-03T05:10:05.288Z,3.67
2022-08-03T05:12:43.302Z,2.50
2022-08-03T05:15:10.828Z,3.25
2022-08-03T05:17:38.157Z,2.95
2022-08-03T05:20:06.113Z,2.50
2022-08-03T05:22:33.558Z,2.28
2022-08-03T05:25:01.739Z,2.40
2022-08-03T05:27:29.139Z,2.28
2022-08-03T05:29:56.538Z,2.20
2022-08-03T05:32:43.849Z,2.97
2022-08-03T05:35:56.793Z,2.75
2022-08-03T05:37:58.503Z,2.60
2022-08-03T05:40:25.845Z,2.55
2022-08-03T05:42:54.275Z,2.60
2022-08-03T05:45:24.292Z,2.63
2022-08-03T05:47:55.302Z,2.47
2022-08-03T05:50:22.764Z,2.63
2022-08-03T05:52:50.079Z,2.38
2022-08-03T05:55:17.768Z,2.20
2022-08-03T05:57:46.565Z,2.38
2022-08-03T06:00:14.298Z,2.38
2022-08-03T06:02:43.105Z,2.42
2022-08-03T06:05:10.937Z,2.35
2022-08-03T06:07:38.310Z,2.05
2022-08-03T06:10:36.328Z,2.20
2022-08-03T06:12:54.196Z,2.00
2022-08-03T06:15:22.036Z,1.80
2022-08-03T06:17:49.913Z,2.58
2022-08-03T06:20:18.887Z,2.00
2022-08-03T06:22:51.056Z,2.20
2022-08-03T06:25:21.238Z,2.35
2022-08-03T06:27:48.855Z,2.25
2022-08-03T06:30:21.014Z,2.00
2022-08-03T06:32:51.757Z,2.35
2022-08-03T06:35:20.041Z,2.72
2022-08-03T06:37:49.300Z,2.00
2022-08-03T06:40:31.208Z,2.20
2022-08-03T06:42:59.095Z,2.30
2022-08-03T06:45:31.557Z,2.05
2022-08-03T06:48:04.239Z,2.30
2022-08-03T06:50:32.187Z,2.00
2022-08-03T06:52:59.829Z,3.30
2022-08-03T06:55:27.392Z,2.20
2022-08-03T06:57:54.924Z,1.85
2022-08-03T07:00:28.145Z,1.77
2022-08-03T07:02:58.310Z,1.88
2022-08-03T07:05:26.030Z,2.25
2022-08-03T07:07:57.652Z,2.97
2022-08-03T07:10:25.375Z,2.00
2022-08-03T07:12:56.592Z,1.90
2022-08-03T07:15:53.874Z,1.90
2022-08-03T07:18:12.309Z,1.80
2022-08-03T07:20:40.142Z,1.85
2022-08-03T07:23:07.543Z,1.70
2022-08-03T07:25:34.918Z,1.40
2022-08-03T07:28:03.802Z,1.70
2022-08-03T07:30:31.206Z,1.52
2022-08-03T07:32:58.520Z,1.42
2022-08-03T07:35:26.396Z,1.60
2022-08-03T07:37:54.844Z,1.70
2022-08-03T07:40:22.854Z,1.77
2022-08-03T07:42:52.132Z,1.65
2022-08-03T07:45:23.453Z,1.70
2022-08-03T07:47:53.563Z,1.70
2022-08-03T07:50:22.044Z,1.63
2022-08-03T07:52:50.461Z,1.65
2022-08-03T07:55:19.685Z,1.67
2022-08-03T07:57:47.581Z,1.50
2022-08-03T08:00:18.961Z,1.60
2022-08-03T08:02:46.412Z,1.60
2022-08-03T08:05:13.830Z,1.58
2022-08-03T08:07:41.268Z,1.67
2022-08-03T08:10:10.097Z,1.30
2022-08-03T08:12:38.728Z,1.67
2022-08-03T08:15:06.947Z,1.60
2022-08-03T08:17:49.220Z,1.58
2022-08-03T08:20:23.775Z,1.42
2022-08-03T08:23:08.908Z,1.50
2022-08-03T08:25:53.317Z,1.58
2022-08-03T08:28:30.842Z,1.48
2022-08-03T08:31:00.979Z,1.40
2022-08-03T08:33:42.104Z,1.50
2022-08-03T08:36:15.875Z,1.20
2022-08-03T08:38:44.876Z,1.52
2022-08-03T08:41:12.928Z,1.50
2022-08-03T08:43:40.389Z,1.50
2022-08-03T08:46:08.535Z,1.42
2022-08-03T08:48:37.037Z,1.40
2022-08-03T08:51:04.393Z,1.42
2022-08-03T08:53:33.204Z,1.38
2022-08-03T08:56:01.304Z,1.48
2022-08-03T08:58:30.357Z,1.13
2022-08-03T09:00:57.885Z,1.77
2022-08-03T09:03:29.570Z,1.27
2022-08-03T09:06:00.226Z,1.30
2022-08-03T09:08:28.510Z,1.20
2022-08-03T09:10:55.947Z,1.60
2022-08-03T09:13:23.284Z,6.70
2022-08-03T09:16:12.015Z,1.70
2022-08-03T09:18:39.487Z,1.60
2022-08-03T09:21:31.228Z,1.65
2022-08-03T09:24:03.355Z,1.45
2022-08-03T09:26:31.696Z,1.30
2022-08-03T09:29:07.179Z,1.10
2022-08-03T09:31:43.735Z,1.35
2022-08-03T09:34:15.375Z,1.15
2022-08-03T09:36:49.375Z,0.98
2022-08-03T09:39:37.551Z,1.20
2022-08-03T09:42:23.793Z,1.23
2022-08-03T09:44:51.884Z,1.00
2022-08-03T09:47:32.960Z,1.10
2022-08-03T09:50:04.579Z,1.00
2022-08-03T09:52:39.097Z,1.05
2022-08-03T09:56:05.119Z,0.98
2022-08-03T09:58:10.279Z,1.25
2022-08-03T10:01:23.677Z,0.98
2022-08-03T10:04:04.087Z,1.10
2022-08-03T10:06:32.476Z,1.30
2022-08-03T10:09:07.343Z,1.50
2022-08-03T10:11:41.265Z,1.80
2022-08-03T10:14:11.181Z,1.30
2022-08-03T10:16:39.476Z,1.20
2022-08-03T10:19:07.943Z,1.30
2022-08-03T10:21:37.648Z,1.17
2022-08-03T10:24:07.532Z,1.30
2022-08-03T10:26:49.745Z,1.40
2022-08-03T10:29:21.699Z,1.00
2022-08-03T10:31:54.722Z,1.17
2022-08-03T10:34:31.819Z,1.30
2022-08-03T10:36:59.422Z,1.08
2022-08-03T10:39:29.039Z,1.10
2022-08-03T10:41:58.702Z,2.08
2022-08-03T10:44:30.944Z,1.20
2022-08-03T10:46:58.318Z,1.10
2022-08-03T10:49:35.264Z,0.80
2022-08-03T10:52:13.732Z,1.30
2022-08-03T10:55:10.882Z,1.70
2022-08-03T10:57:56.216Z,1.00
2022-08-03T11:00:27.293Z,0.88
2022-08-03T11:03:16.604Z,1.17
2022-08-03T11:05:45.902Z,0.90
2022-08-03T11:08:24.392Z,1.00
2022-08-03T11:10:53.542Z,1.00
2022-08-03T11:13:22.616Z,1.05
2022-08-03T11:15:52.624Z,1.10
2022-08-03T11:18:20.036Z,1.08
2022-08-03T11:20:58.301Z,1.20
2022-08-03T11:24:04.631Z,1.40
2022-08-03T11:26:33.812Z,0.90
2022-08-03T11:29:27.625Z,1.00
2022-08-03T11:31:55.049Z,1.30
2022-08-03T11:34:22.461Z,0.93
2022-08-03T11:37:22.660Z,0.82
2022-08-03T11:39:52.938Z,1.00
2022-08-03T11:42:23.518Z,0.95
2022-08-03T11:44:51.346Z,1.00
2022-08-03T11:47:20.285Z,1.55
2022-08-03T11:49:48.290Z,0.93
2022-08-03T11:52:16.739Z,2.28
2022-08-03T11:54:44.224Z,1.20
2022-08-03T11:57:11.720Z,1.10
2022-08-03T11:59:39.104Z,1.30
2022-08-03T12:02:07.630Z,1.77
2022-08-03T12:04:58.180Z,0.90
2022-08-03T12:08:03.846Z,1.02
2022-08-03T12:10:15.131Z,1.08
2022-08-03T12:12:46.284Z,1.45
2022-08-03T12:15:14.083Z,1.00
2022-08-03T12:17:41.751Z,1.00
2022-08-03T12:20:10.083Z,1.00
2022-08-03T12:22:41.349Z,0.80
2022-08-03T12:25:09.542Z,0.90
2022-08-03T12:27:37.066Z,1.00
2022-08-03T12:30:04.771Z,0.85
2022-08-03T12:32:32.219Z,0.80
2022-08-03T12:35:01.359Z,0.90
2022-08-03T12:37:30.023Z,1.27
2022-08-03T12:40:07.706Z,0.90
2022-08-03T12:42:37.753Z,0.73
2022-08-03T12:45:24.488Z,1.00
2022-08-03T12:47:58.757Z,0.95
2022-08-03T12:52:53.595Z,1.00
2022-08-03T12:55:21.812Z,0.88
2022-08-03T12:57:49.376Z,1.00
2022-08-03T13:00:21.386Z,1.23
2022-08-03T13:03:38.215Z,0.82
2022-08-03T13:05:48.642Z,1.00
2022-08-03T13:08:23.401Z,0.90
2022-08-03T13:10:51.012Z,1.20
2022-08-03T13:13:20.681Z,1.00
2022-08-03T13:15:48.396Z,1.15
2022-08-03T13:18:19.863Z,0.90
2022-08-03T13:20:47.483Z,0.82
2022-08-03T13:23:22.399Z,1.20
2022-08-03T13:25:55.854Z,0.90
2022-08-03T13:28:23.659Z,1.05
2022-08-03T13:30:51.000Z,0.93
2022-08-03T13:33:18.599Z,0.70
2022-08-03T13:35:46.043Z,0.90
2022-08-03T13:38:13.672Z,1.40
2022-08-03T13:40:42.900Z,1.33
2022-08-03T13:43:13.717Z,1.00
2022-08-03T13:45:42.863Z,1.30
2022-08-03T13:48:13.336Z,1.30
2022-08-03T13:51:05.180Z,1.20
2022-08-03T13:53:39.292Z,1.02
2022-08-03T13:56:06.717Z,1.10
2022-08-03T13:58:34.134Z,1.20
2022-08-03T14:01:01.513Z,0.90
2022-08-03T14:03:28.985Z,1.10
2022-08-03T14:05:56.337Z,0.90
2022-08-03T14:08:23.713Z,1.08
2022-08-03T14:10:51.054Z,1.30
2022-08-03T14:13:18.452Z,1.10
2022-08-03T14:15:51.169Z,0.90
2022-08-03T14:18:27.682Z,1.13
2022-08-03T14:21:05.063Z,1.75
2022-08-03T14:23:34.104Z,0.90
2022-08-03T14:26:01.593Z,1.00
2022-08-03T14:28:28.935Z,1.40
2022-08-03T14:30:56.373Z,1.00
2022-08-03T14:33:24.099Z,1.10
2022-08-03T14:35:51.740Z,1.10
2022-08-03T14:38:19.136Z,1.15
2022-08-03T14:40:46.704Z,1.30
2022-08-03T14:43:14.399Z,1.08
2022-08-03T14:45:42.062Z,1.52
2022-08-03T14:50:32.571Z,1.30
2022-08-03T14:50:57.163Z,1.15
2022-08-03T14:53:24.738Z,1.50
2022-08-03T14:55:53.386Z,2.00
2022-08-03T14:58:25.171Z,1.65
2022-08-03T15:00:53.424Z,1.05
2022-08-03T15:03:23.376Z,0.88
2022-08-03T15:05:55.361Z,1.50
2022-08-03T15:08:23.493Z,1.17
2022-08-03T15:10:50.934Z,1.02
2022-08-03T15:13:19.715Z,1.00
2022-08-03T15:15:47.751Z,1.10
2022-08-03T15:18:15.445Z,1.02
2022-08-03T15:20:45.980Z,1.52
2022-08-03T15:23:14.691Z,1.30
2022-08-03T15:26:29.636Z,1.33
2022-08-03T15:28:30.906Z,1.00
2022-08-03T15:30:58.362Z,1.10
2022-08-03T15:33:26.039Z,1.20
2022-08-03T15:35:53.553Z,1.20
2022-08-03T15:38:25.764Z,1.20
2022-08-03T15:40:55.032Z,1.10
2022-08-03T15:43:23.156Z,1.00
2022-08-03T15:46:19.083Z,4.10
2022-08-03T15:48:38.350Z,0.82
2022-08-03T15:51:05.792Z,1.00
2022-08-03T15:53:33.678Z,1.25
2022-08-03T15:56:03.300Z,1.02
2022-08-03T15:59:10.194Z,1.00
2022-08-03T16:01:21.499Z,1.15
2022-08-03T16:03:48.984Z,1.20
2022-08-03T16:06:16.478Z,1.30
2022-08-03T16:08:56.741Z,1.38
2022-08-03T16:11:24.294Z,1.63
2022-08-03T16:14:13.581Z,1.40
2022-08-03T16:16:40.903Z,1.10
2022-08-03T16:19:08.263Z,1.30
2022-08-03T16:21:48.335Z,1.48
2022-08-03T16:24:19.731Z,1.20
2022-08-03T16:26:56.105Z,1.20
2022-08-03T16:29:24.032Z,1.30
2022-08-03T16:31:52.872Z,1.42
2022-08-03T16:34:20.680Z,1.30
2022-08-03T16:36:48.212Z,1.10
2022-08-03T16:39:15.685Z,1.58
2022-08-03T16:41:53.813Z,1.30
2022-08-03T16:44:29.015Z,1.17
2022-08-03T16:46:56.498Z,1.40
2022-08-03T16:49:53.788Z,1.35
2022-08-03T16:52:12.978Z,1.10
2022-08-03T16:54:40.735Z,1.30
2022-08-03T16:57:08.661Z,1.30
2022-08-03T16:59:37.001Z,1.23
2022-08-03T17:02:10.235Z,1.30
2022-08-03T17:04:40.423Z,1.30
2022-08-03T17:07:08.698Z,1.48
2022-08-03T17:09:38.432Z,1.30
2022-08-03T17:12:06.302Z,1.50
2022-08-03T17:14:34.608Z,2.00
2022-08-03T17:17:03.822Z,2.03
2022-08-03T17:19:32.387Z,1.85
2022-08-03T17:22:01.354Z,1.70
2022-08-03T17:24:32.829Z,1.30
2022-08-03T17:27:03.403Z,1.52
2022-08-03T17:29:32.088Z,1.45
2022-08-03T17:31:59.520Z,1.77
2022-08-03T17:34:26.932Z,3.05
2022-08-03T17:37:27.161Z,1.83
2022-08-03T17:39:58.061Z,1.90
2022-08-03T17:42:30.829Z,1.90
2022-08-03T17:45:02.191Z,1.60
2022-08-03T17:47:42.073Z,3.05
2022-08-03T17:50:23.386Z,2.67
2022-08-03T17:53:07.569Z,1.75
2022-08-03T17:55:57.481Z,2.13
2022-08-03T17:58:54.872Z,1.92
2022-08-03T18:02:30.571Z,1.40
2022-08-03T18:05:16.629Z,1.85
2022-08-03T18:07:47.499Z,1.70
2022-08-03T18:10:16.749Z,2.38
2022-08-03T18:12:52.644Z,2.20
2022-08-03T18:15:47.290Z,2.20
2022-08-03T18:18:16.760Z,1.90
2022-08-03T18:21:06.495Z,2.08
2022-08-03T18:23:37.680Z,1.88
2022-08-03T18:26:11.850Z,2.22
2022-08-03T18:28:39.883Z,2.30
2022-08-03T18:31:10.058Z,2.33
2022-08-03T18:34:16.368Z,2.30
2022-08-03T18:36:30.256Z,2.30
2022-08-03T18:38:59.831Z,2.30
2022-08-03T18:41:32.231Z,2.47
2022-08-03T18:44:09.040Z,2.30
2022-08-03T18:47:16.122Z,2.20
2022-08-03T18:50:28.143Z,1.90
2022-08-03T18:53:19.667Z,2.20
2022-08-03T18:56:01.897Z,2.45
2022-08-03T18:58:52.289Z,2.50
2022-08-03T19:04:24.935Z,2.80
2022-08-03T19:06:55.957Z,2.83
2022-08-03T19:09:28.351Z,2.35
2022-08-03T19:12:11.132Z,2.40
2022-08-03T19:14:44.670Z,2.58
2022-08-03T19:17:13.251Z,2.35
2022-08-03T19:19:44.917Z,2.88
2022-08-03T19:22:15.946Z,3.00
2022-08-03T19:24:44.613Z,2.58
2022-08-03T19:27:12.360Z,2.83
2022-08-03T19:29:58.117Z,2.70
2022-08-03T19:32:28.914Z,2.80
2022-08-03T19:34:56.979Z,2.83
2022-08-03T19:37:38.526Z,2.65
2022-08-03T19:40:10.365Z,3.20
2022-08-03T19:42:38.394Z,2.90
2022-08-03T19:45:13.820Z,2.70
2022-08-03T19:47:46.229Z,2.65
2022-08-03T19:50:14.639Z,2.83
2022-08-03T19:52:43.853Z,2.75
2022-08-03T19:55:12.080Z,3.00
2022-08-03T19:57:42.579Z,2.40
2022-08-03T20:00:12.499Z,3.05
2022-08-03T20:02:41.442Z,3.15
2022-08-03T20:05:11.966Z,2.80
2022-08-03T20:07:47.694Z,2.80
2022-08-03T20:10:19.065Z,2.63
2022-08-03T20:12:46.811Z,2.60
2022-08-03T20:15:14.466Z,2.38
2022-08-03T20:17:55.116Z,2.70
2022-08-03T20:20:33.760Z,2.42
2022-08-03T20:23:06.833Z,2.55
2022-08-03T20:25:48.686Z,2.47
2022-08-03T20:28:30.100Z,2.55
2022-08-03T20:33:27.885Z,2.17
2022-08-03T20:36:15.745Z,2.20
2022-08-03T20:38:47.373Z,3.70
2022-08-03T20:41:18.385Z,3.00
2022-08-03T20:43:46.216Z,3.30
2022-08-03T20:46:30.905Z,2.75
2022-08-03T20:49:00.293Z,2.88
2022-08-03T20:51:50.373Z,2.70
2022-08-03T20:54:28.790Z,2.17
2022-08-03T20:56:58.681Z,2.33
2022-08-03T20:59:36.592Z,2.30
2022-08-03T21:02:06.111Z,2.47
2022-08-03T21:04:33.640Z,2.28
2022-08-03T21:07:03.681Z,2.22
2022-08-03T21:09:55.824Z,2.30
2022-08-03T21:12:41.422Z,2.80
2022-08-03T21:13:09.782Z,3.38
2022-08-03T21:15:09.805Z,2.20
2022-08-03T21:17:58.212Z,2.30
2022-08-03T21:20:30.288Z,2.20
2022-08-03T21:22:58.008Z,2.15
2022-08-03T21:25:29.392Z,2.20
2022-08-03T21:27:56.973Z,2.47
2022-08-03T21:30:25.107Z,2.40
2022-08-03T21:32:53.542Z,2.30
2022-08-03T21:35:21.022Z,2.47
2022-08-03T21:38:08.820Z,2.17
2022-08-03T21:40:36.444Z,2.33
2022-08-03T21:43:03.872Z,2.28
2022-08-03T21:45:31.604Z,2.08
2022-08-03T21:47:58.952Z,2.10
2022-08-03T21:50:26.304Z,1.90
2022-08-03T21:52:53.667Z,1.92
2022-08-03T21:55:21.294Z,2.33
2022-08-03T21:57:52.091Z,1.80
2022-08-03T22:00:20.659Z,1.95
2022-08-03T22:02:55.558Z,1.95
2022-08-03T22:05:29.105Z,2.30
2022-08-03T22:08:15.110Z,2.20
2022-08-03T22:10:45.773Z,1.90
2022-08-03T22:13:13.747Z,2.17
2022-08-03T22:15:41.088Z,2.45
2022-08-03T22:18:08.519Z,2.08
2022-08-03T22:20:35.939Z,2.60
2022-08-03T22:23:05.162Z,2.28
2022-08-03T22:25:34.674Z,2.08
2022-08-03T22:28:09.924Z,2.00
2022-08-03T22:30:37.620Z,2.20
2022-08-03T22:33:11.583Z,2.30
2022-08-03T22:35:47.611Z,2.45
2022-08-03T22:38:16.894Z,2.60
2022-08-03T22:40:44.602Z,2.28
2022-08-03T22:43:11.926Z,2.22
2022-08-03T22:46:07.155Z,2.17
2022-08-03T22:48:26.617Z,2.20
2022-08-03T22:50:53.988Z,2.10
2022-08-03T22:53:21.723Z,2.70
2022-08-03T22:55:49.539Z,2.15
2022-08-03T22:58:17.265Z,2.30
2022-08-03T23:01:01.440Z,2.45
2022-08-03T23:03:59.902Z,2.60
2022-08-03T23:06:20.041Z,2.78
2022-08-03T23:08:47.707Z,2.60
2022-08-03T23:11:15.067Z,2.55
2022-08-03T23:13:42.415Z,2.58
2022-08-03T23:16:09.776Z,2.35
2022-08-03T23:18:37.806Z,2.28
2022-08-03T23:21:10.943Z,2.63
2022-08-03T23:23:44.276Z,2.60
2022-08-03T23:26:13.371Z,2.70
2022-08-03T23:28:42.180Z,2.83
2022-08-03T23:31:09.563Z,3.00
2022-08-03T23:33:38.588Z,2.60
2022-08-03T23:36:28.528Z,2.63
2022-08-03T23:38:53.436Z,2.65
2022-08-03T23:41:20.883Z,2.75
2022-08-03T23:43:53.625Z,2.90
2022-08-03T23:46:22.244Z,2.67
2022-08-03T23:48:50.265Z,3.25
2022-08-03T23:51:30.596Z,2.97
2022-08-03T23:54:10.187Z,2.63
2022-08-03T23:57:04.701Z,2.67
